sensor_id;sensor_type;location;lat;lon;timestamp;pressure;altitude;pressure_sealevel;temperature;humidity
12757;BME280;31601;48.042;12.240;2023-05-07T00:01:05;96139.97;;;13.45;72.97
12757;BME280;31601;48.042;12.240;2023-05-07T00:03:32;96142.00;;;13.50;72.77
12757;BME280;31601;48.042;12.240;2023-05-07T00:05:58;96144.00;;;13.54;72.75
12757;BME280;31601;48.042;12.240;2023-05-07T00:08:25;96137.75;;;13.55;72.61
12757;BME280;31601;48.042;12.240;2023-05-07T00:10:51;96135.09;;;13.42;72.87
12757;BME280;31601;48.042;12.240;2023-05-07T00:13:18;96144.03;;;13.48;72.79
12757;BME280;31601;48.042;12.240;2023-05-07T00:15:44;96149.91;;;13.50;72.44
12757;BME280;31601;48.042;12.240;2023-05-07T00:18:12;96149.91;;;13.50;72.65
12757;BME280;31601;48.042;12.240;2023-05-07T00:20:38;96156.00;;;13.50;72.54
12757;BME280;31601;48.042;12.240;2023-05-07T00:23:05;96151.53;;;13.51;72.36
12757;BME280;31601;48.042;12.240;2023-05-07T00:25:31;96147.88;;;13.45;72.31
12757;BME280;31601;48.042;12.240;2023-05-07T00:27:58;96148.28;;;13.42;72.35
12757;BME280;31601;48.042;12.240;2023-05-07T00:30:28;96147.47;;;13.41;72.23
12757;BME280;31601;48.042;12.240;2023-05-07T00:32:55;96143.00;;;13.42;72.35
12757;BME280;31601;48.042;12.240;2023-05-07T00:35:23;96146.03;;;13.32;72.44
12757;BME280;31601;48.042;12.240;2023-05-07T00:37:49;96149.66;;;13.31;72.64
12757;BME280;31601;48.042;12.240;2023-05-07T00:40:16;96147.44;;;13.28;72.88
12757;BME280;31601;48.042;12.240;2023-05-07T00:42:42;96142.81;;;13.37;72.79
12757;BME280;31601;48.042;12.240;2023-05-07T00:45:12;96136.72;;;13.23;73.31
12757;BME280;31601;48.042;12.240;2023-05-07T00:47:39;96149.69;;;13.18;73.84
12757;BME280;31601;48.042;12.240;2023-05-07T00:50:06;96138.31;;;13.11;73.70
12757;BME280;31601;48.042;12.240;2023-05-07T00:52:37;96142.38;;;13.06;73.62
12757;BME280;31601;48.042;12.240;2023-05-07T00:55:05;96136.50;;;13.18;73.13
12757;BME280;31601;48.042;12.240;2023-05-07T00:57:33;96132.44;;;13.22;73.12
12757;BME280;31601;48.042;12.240;2023-05-07T01:00:01;96135.31;;;13.27;72.80
12757;BME280;31601;48.042;12.240;2023-05-07T01:02:27;96131.03;;;13.26;73.21
12757;BME280;31601;48.042;12.240;2023-05-07T01:04:54;96136.09;;;13.28;73.03
12757;BME280;31601;48.042;12.240;2023-05-07T01:07:21;96137.31;;;13.32;73.00
12757;BME280;31601;48.042;12.240;2023-05-07T01:09:50;96139.13;;;13.31;72.99
12757;BME280;31601;48.042;12.240;2023-05-07T01:12:16;96136.91;;;13.28;72.88
12757;BME280;31601;48.042;12.240;2023-05-07T01:14:43;96135.69;;;13.31;72.89
12757;BME280;31601;48.042;12.240;2023-05-07T01:17:10;96135.91;;;13.29;72.91
12757;BME280;31601;48.042;12.240;2023-05-07T01:19:36;96128.00;;;13.29;73.04
12757;BME280;31601;48.042;12.240;2023-05-07T01:22:07;96140.16;;;13.30;72.96
12757;BME280;31601;48.042;12.240;2023-05-07T01:24:36;96140.56;;;13.27;73.03
12757;BME280;31601;48.042;12.240;2023-05-07T01:27:02;96138.53;;;13.29;72.96
12757;BME280;31601;48.042;12.240;2023-05-07T01:29:29;96139.16;;;13.24;73.08
12757;BME280;31601;48.042;12.240;2023-05-07T01:31:57;96147.03;;;13.31;73.05
12757;BME280;31601;48.042;12.240;2023-05-07T01:34:25;96145.44;;;13.30;72.99
12757;BME280;31601;48.042;12.240;2023-05-07T01:36:52;96140.75;;;13.32;72.98
12757;BME280;31601;48.042;12.240;2023-05-07T01:39:20;96136.50;;;13.24;73.02
12757;BME280;31601;48.042;12.240;2023-05-07T01:41:49;96140.75;;;13.19;73.00
12757;BME280;31601;48.042;12.240;2023-05-07T01:44:16;96141.78;;;12.98;73.38
12757;BME280;31601;48.042;12.240;2023-05-07T01:46:44;96135.28;;;12.94;73.31
12757;BME280;31601;48.042;12.240;2023-05-07T01:49:11;96132.63;;;12.94;73.30
12757;BME280;31601;48.042;12.240;2023-05-07T01:51:39;96134.84;;;12.83;73.29
12757;BME280;31601;48.042;12.240;2023-05-07T01:54:06;96131.00;;;12.79;72.87
12757;BME280;31601;48.042;12.240;2023-05-07T01:56:33;96125.13;;;12.84;72.67
12757;BME280;31601;48.042;12.240;2023-05-07T01:59:01;96128.56;;;12.91;72.69
12757;BME280;31601;48.042;12.240;2023-05-07T02:01:28;96127.16;;;12.95;72.63
12757;BME280;31601;48.042;12.240;2023-05-07T02:03:55;96124.34;;;12.90;72.56
12757;BME280;31601;48.042;12.240;2023-05-07T02:06:21;96124.09;;;12.71;72.93
12757;BME280;31601;48.042;12.240;2023-05-07T02:08:47;96133.03;;;12.84;72.60
12757;BME280;31601;48.042;12.240;2023-05-07T02:11:14;96126.34;;;12.88;72.61
12757;BME280;31601;48.042;12.240;2023-05-07T02:13:41;96130.81;;;12.94;72.38
12757;BME280;31601;48.042;12.240;2023-05-07T02:16:09;96125.97;;;12.98;72.37
12757;BME280;31601;48.042;12.240;2023-05-07T02:18:36;96127.78;;;12.97;72.43
12757;BME280;31601;48.042;12.240;2023-05-07T02:21:03;96123.13;;;12.99;72.46
12757;BME280;31601;48.042;12.240;2023-05-07T02:23:29;96120.50;;;12.99;72.59
12757;BME280;31601;48.042;12.240;2023-05-07T02:25:56;96127.16;;;13.02;72.68
12757;BME280;31601;48.042;12.240;2023-05-07T02:28:22;96119.06;;;13.03;72.63
12757;BME280;31601;48.042;12.240;2023-05-07T02:30:48;96118.66;;;13.06;72.53
12757;BME280;31601;48.042;12.240;2023-05-07T02:33:17;96117.47;;;13.02;72.41
12757;BME280;31601;48.042;12.240;2023-05-07T02:35:43;96125.97;;;12.98;72.46
12757;BME280;31601;48.042;12.240;2023-05-07T02:38:09;96117.88;;;12.99;72.27
12757;BME280;31601;48.042;12.240;2023-05-07T02:40:36;96121.09;;;13.01;72.26
12757;BME280;31601;48.042;12.240;2023-05-07T02:43:04;96121.09;;;13.01;72.40
12757;BME280;31601;48.042;12.240;2023-05-07T02:45:31;96118.88;;;12.98;71.95
12757;BME280;31601;48.042;12.240;2023-05-07T02:47:58;96119.25;;;12.82;72.60
12757;BME280;31601;48.042;12.240;2023-05-07T02:50:25;96114.19;;;12.74;72.85
12757;BME280;31601;48.042;12.240;2023-05-07T02:52:52;96122.50;;;12.84;72.64
12757;BME280;31601;48.042;12.240;2023-05-07T02:55:18;96120.28;;;12.87;72.46
12757;BME280;31601;48.042;12.240;2023-05-07T02:57:45;96123.31;;;12.91;72.22
12757;BME280;31601;48.042;12.240;2023-05-07T03:00:13;96122.50;;;12.90;72.43
12757;BME280;31601;48.042;12.240;2023-05-07T03:02:40;96124.13;;;12.92;72.36
12757;BME280;31601;48.042;12.240;2023-05-07T03:05:06;96123.94;;;12.93;72.25
12757;BME280;31601;48.042;12.240;2023-05-07T03:07:34;96121.31;;;12.93;72.27
12757;BME280;31601;48.042;12.240;2023-05-07T03:10:01;96118.28;;;12.96;72.22
12757;BME280;31601;48.042;12.240;2023-05-07T03:12:27;96122.31;;;12.92;72.34
12757;BME280;31601;48.042;12.240;2023-05-07T03:14:53;96125.94;;;12.84;72.34
12757;BME280;31601;48.042;12.240;2023-05-07T03:17:20;96128.97;;;12.88;72.17
12757;BME280;31601;48.042;12.240;2023-05-07T03:19:46;96121.50;;;12.92;72.03
12757;BME280;31601;48.042;12.240;2023-05-07T03:22:13;96125.13;;;12.90;72.31
12757;BME280;31601;48.042;12.240;2023-05-07T03:24:41;96132.84;;;12.92;72.12
12757;BME280;31601;48.042;12.240;2023-05-07T03:27:07;96124.75;;;12.94;72.19
12757;BME280;31601;48.042;12.240;2023-05-07T03:29:34;96125.53;;;12.94;72.21
12757;BME280;31601;48.042;12.240;2023-05-07T03:32:00;96124.53;;;12.95;72.11
12757;BME280;31601;48.042;12.240;2023-05-07T03:34:27;96134.03;;;12.89;72.04
12757;BME280;31601;48.042;12.240;2023-05-07T03:36:53;96140.94;;;12.84;72.39
12757;BME280;31601;48.042;12.240;2023-05-07T03:39:20;96133.84;;;12.84;72.25
12757;BME280;31601;48.042;12.240;2023-05-07T03:41:47;96140.31;;;12.82;72.12
12757;BME280;31601;48.042;12.240;2023-05-07T03:44:14;96143.56;;;12.84;72.11
12757;BME280;31601;48.042;12.240;2023-05-07T03:46:40;96147.00;;;12.84;72.08
12757;BME280;31601;48.042;12.240;2023-05-07T03:49:07;96142.94;;;12.82;71.94
12757;BME280;31601;48.042;12.240;2023-05-07T03:51:33;96148.19;;;12.75;72.06
12757;BME280;31601;48.042;12.240;2023-05-07T03:54:01;96138.31;;;12.84;72.00
12757;BME280;31601;48.042;12.240;2023-05-07T03:56:27;96138.31;;;12.84;72.07
12757;BME280;31601;48.042;12.240;2023-05-07T03:58:55;96129.38;;;12.85;72.05
12757;BME280;31601;48.042;12.240;2023-05-07T04:01:21;96130.41;;;12.84;72.21
12757;BME280;31601;48.042;12.240;2023-05-07T04:03:48;96137.91;;;12.87;72.25
12757;BME280;31601;48.042;12.240;2023-05-07T04:06:15;96135.66;;;12.84;72.64
12757;BME280;31601;48.042;12.240;2023-05-07T04:08:42;96138.47;;;12.76;72.90
12757;BME280;31601;48.042;12.240;2023-05-07T04:11:08;96144.53;;;12.69;73.42
12757;BME280;31601;48.042;12.240;2023-05-07T04:13:35;96137.56;;;12.42;73.82
12757;BME280;31601;48.042;12.240;2023-05-07T04:16:04;96137.97;;;12.39;73.91
12757;BME280;31601;48.042;12.240;2023-05-07T04:18:31;96140.06;;;12.50;73.68
12757;BME280;31601;48.042;12.240;2023-05-07T04:20:57;96143.94;;;12.61;73.31
12757;BME280;31601;48.042;12.240;2023-05-07T04:23:24;96148.94;;;12.42;73.95
12757;BME280;31601;48.042;12.240;2023-05-07T04:25:50;96142.59;;;12.30;74.14
12757;BME280;31601;48.042;12.240;2023-05-07T04:28:17;96139.53;;;12.26;73.72
12757;BME280;31601;48.042;12.240;2023-05-07T04:30:43;96148.34;;;12.47;73.35
12757;BME280;31601;48.042;12.240;2023-05-07T04:33:11;96149.72;;;12.43;73.29
12757;BME280;31601;48.042;12.240;2023-05-07T04:35:38;96152.16;;;12.38;73.57
12757;BME280;31601;48.042;12.240;2023-05-07T04:38:04;96151.38;;;12.57;73.30
12757;BME280;31601;48.042;12.240;2023-05-07T04:40:32;96149.19;;;12.67;73.33
12757;BME280;31601;48.042;12.240;2023-05-07T04:42:59;96152.81;;;12.66;73.53
12757;BME280;31601;48.042;12.240;2023-05-07T04:45:26;96156.09;;;12.68;73.80
12757;BME280;31601;48.042;12.240;2023-05-07T04:47:52;96165.66;;;12.96;73.20
12757;BME280;31601;48.042;12.240;2023-05-07T04:50:20;96172.13;;;12.87;73.31
12757;BME280;31601;48.042;12.240;2023-05-07T04:52:49;96166.69;;;13.15;72.66
12757;BME280;31601;48.042;12.240;2023-05-07T04:55:16;96176.22;;;13.16;72.66
12757;BME280;31601;48.042;12.240;2023-05-07T04:57:42;96177.81;;;12.97;73.07
12757;BME280;31601;48.042;12.240;2023-05-07T05:00:09;96178.41;;;12.86;73.04
12757;BME280;31601;48.042;12.240;2023-05-07T05:02:36;96179.84;;;12.95;72.73
12757;BME280;31601;48.042;12.240;2023-05-07T05:05:03;96180.63;;;12.82;73.71
12757;BME280;31601;48.042;12.240;2023-05-07T05:07:31;96180.47;;;13.04;73.00
12757;BME280;31601;48.042;12.240;2023-05-07T05:09:58;96183.91;;;13.04;73.12
12757;BME280;31601;48.042;12.240;2023-05-07T05:12:24;96182.28;;;13.03;73.54
12757;BME280;31601;48.042;12.240;2023-05-07T05:14:51;96180.06;;;13.07;73.45
12757;BME280;31601;48.042;12.240;2023-05-07T05:17:17;96176.19;;;13.10;73.64
12757;BME280;31601;48.042;12.240;2023-05-07T05:19:43;96173.56;;;13.10;73.74
12757;BME280;31601;48.042;12.240;2023-05-07T05:22:10;96176.28;;;13.36;73.38
12757;BME280;31601;48.042;12.240;2023-05-07T05:24:38;96174.22;;;13.58;72.63
12757;BME280;31601;48.042;12.240;2023-05-07T05:27:04;96178.44;;;13.93;72.04
12757;BME280;31601;48.042;12.240;2023-05-07T05:29:31;96175.00;;;13.79;72.07
12757;BME280;31601;48.042;12.240;2023-05-07T05:31:57;96174.19;;;13.92;72.20
12757;BME280;31601;48.042;12.240;2023-05-07T05:34:24;96176.97;;;14.17;71.72
12757;BME280;31601;48.042;12.240;2023-05-07T05:36:51;96173.44;;;14.43;71.33
12757;BME280;31601;48.042;12.240;2023-05-07T05:39:17;96177.63;;;14.64;70.85
12757;BME280;31601;48.042;12.240;2023-05-07T05:41:45;96168.78;;;14.84;70.60
12757;BME280;31601;48.042;12.240;2023-05-07T05:44:12;96176.97;;;14.76;70.47
12757;BME280;31601;48.042;12.240;2023-05-07T05:46:38;96169.50;;;14.98;70.53
12757;BME280;31601;48.042;12.240;2023-05-07T05:49:05;96172.84;;;15.18;70.09
12757;BME280;31601;48.042;12.240;2023-05-07T05:51:32;96167.06;;;15.28;69.74
12757;BME280;31601;48.042;12.240;2023-05-07T05:53:58;96170.28;;;15.37;69.13
12757;BME280;31601;48.042;12.240;2023-05-07T05:56:24;96166.09;;;15.22;69.57
12757;BME280;31601;48.042;12.240;2023-05-07T05:58:52;96164.66;;;15.27;69.59
12757;BME280;31601;48.042;12.240;2023-05-07T06:01:19;96165.28;;;15.47;69.38
12757;BME280;31601;48.042;12.240;2023-05-07T06:03:45;96165.78;;;15.37;69.69
12757;BME280;31601;48.042;12.240;2023-05-07T06:06:12;96165.00;;;15.37;69.57
12757;BME280;31601;48.042;12.240;2023-05-07T06:08:39;96167.03;;;15.35;70.18
12757;BME280;31601;48.042;12.240;2023-05-07T06:11:06;96163.78;;;15.33;70.89
12757;BME280;31601;48.042;12.240;2023-05-07T06:13:32;96164.41;;;15.60;69.90
12757;BME280;31601;48.042;12.240;2023-05-07T06:16:00;96167.63;;;15.87;68.94
12757;BME280;31601;48.042;12.240;2023-05-07T06:18:27;96172.19;;;16.17;68.54
12757;BME280;31601;48.042;12.240;2023-05-07T06:20:53;96163.34;;;16.42;67.83
12757;BME280;31601;48.042;12.240;2023-05-07T06:23:20;96163.25;;;16.67;67.48
12757;BME280;31601;48.042;12.240;2023-05-07T06:25:48;96168.13;;;16.82;67.00
12757;BME280;31601;48.042;12.240;2023-05-07T06:28:14;96163.06;;;16.80;66.38
12757;BME280;31601;48.042;12.240;2023-05-07T06:30:41;96163.06;;;17.11;66.00
12757;BME280;31601;48.042;12.240;2023-05-07T06:33:08;96158.22;;;17.08;65.08
12757;BME280;31601;48.042;12.240;2023-05-07T06:35:35;96171.88;;;16.93;65.68
12757;BME280;31601;48.042;12.240;2023-05-07T06:38:01;96161.16;;;17.18;65.38
12757;BME280;31601;48.042;12.240;2023-05-07T06:40:28;96174.06;;;17.26;64.66
12757;BME280;31601;48.042;12.240;2023-05-07T06:42:54;96170.19;;;17.52;63.60
12757;BME280;31601;48.042;12.240;2023-05-07T06:45:20;96164.59;;;17.18;63.96
12757;BME280;31601;48.042;12.240;2023-05-07T06:47:47;96166.34;;;17.25;64.14
12757;BME280;31601;48.042;12.240;2023-05-07T06:50:15;96167.78;;;17.75;62.80
12757;BME280;31601;48.042;12.240;2023-05-07T06:52:42;96177.34;;;17.52;62.92
12757;BME280;31601;48.042;12.240;2023-05-07T06:55:09;96174.94;;;17.86;62.36
12757;BME280;31601;48.042;12.240;2023-05-07T06:57:36;96174.84;;;17.93;61.99
12757;BME280;31601;48.042;12.240;2023-05-07T07:00:03;96171.38;;;18.04;61.29
12757;BME280;31601;48.042;12.240;2023-05-07T07:02:32;96175.31;;;18.01;61.90
12757;BME280;31601;48.042;12.240;2023-05-07T07:04:58;96181.75;;;18.29;61.15
12757;BME280;31601;48.042;12.240;2023-05-07T07:07:26;96177.56;;;18.33;61.35
12757;BME280;31601;48.042;12.240;2023-05-07T07:09:52;96183.13;;;18.20;62.38
12757;BME280;31601;48.042;12.240;2023-05-07T07:12:19;96177.56;;;18.33;62.36
12757;BME280;31601;48.042;12.240;2023-05-07T07:14:45;96171.44;;;18.73;60.88
12757;BME280;31601;48.042;12.240;2023-05-07T07:17:12;96181.03;;;18.86;61.36
12757;BME280;31601;48.042;12.240;2023-05-07T07:19:38;96173.13;;;19.20;60.29
12757;BME280;31601;48.042;12.240;2023-05-07T07:22:04;96175.91;;;19.13;60.15
12757;BME280;31601;48.042;12.240;2023-05-07T07:24:32;96172.00;;;19.33;59.43
12757;BME280;31601;48.042;12.240;2023-05-07T07:26:58;96172.88;;;19.22;60.19
12757;BME280;31601;48.042;12.240;2023-05-07T07:29:25;96173.78;;;19.78;59.49
12757;BME280;31601;48.042;12.240;2023-05-07T07:31:52;96170.47;;;19.54;59.34
12757;BME280;31601;48.042;12.240;2023-05-07T07:34:18;96171.75;;;20.02;57.86
12757;BME280;31601;48.042;12.240;2023-05-07T07:36:45;96162.22;;;20.07;57.88
12757;BME280;31601;48.042;12.240;2023-05-07T07:39:11;96170.91;;;20.41;56.93
12757;BME280;31601;48.042;12.240;2023-05-07T07:41:39;96180.75;;;20.18;57.77
12757;BME280;31601;48.042;12.240;2023-05-07T07:44:05;96179.41;;;20.38;57.65
12757;BME280;31601;48.042;12.240;2023-05-07T07:46:32;96173.38;;;20.26;57.51
12757;BME280;31601;48.042;12.240;2023-05-07T07:48:59;96176.13;;;20.75;56.73
12757;BME280;31601;48.042;12.240;2023-05-07T07:51:25;96174.16;;;20.65;55.94
12757;BME280;31601;48.042;12.240;2023-05-07T07:53:52;96169.47;;;21.00;55.12
12757;BME280;31601;48.042;12.240;2023-05-07T07:56:18;96170.09;;;20.85;55.07
12757;BME280;31601;48.042;12.240;2023-05-07T07:58:47;96160.91;;;20.98;53.41
12757;BME280;31601;48.042;12.240;2023-05-07T08:01:13;96164.03;;;21.17;53.85
12757;BME280;31601;48.042;12.240;2023-05-07T08:03:40;96162.03;;;21.34;52.44
12757;BME280;31601;48.042;12.240;2023-05-07T08:06:06;96163.50;;;20.92;53.17
12757;BME280;31601;48.042;12.240;2023-05-07T08:08:33;96166.69;;;21.17;52.21
12757;BME280;31601;48.042;12.240;2023-05-07T08:10:59;96158.75;;;21.54;51.42
12757;BME280;31601;48.042;12.240;2023-05-07T08:13:26;96171.78;;;21.18;51.82
12757;BME280;31601;48.042;12.240;2023-05-07T08:15:53;96177.09;;;21.18;50.81
12757;BME280;31601;48.042;12.240;2023-05-07T08:18:20;96173.00;;;21.38;49.84
12757;BME280;31601;48.042;12.240;2023-05-07T08:20:48;96173.97;;;21.91;49.81
12757;BME280;31601;48.042;12.240;2023-05-07T08:23:14;96177.47;;;21.97;50.19
12757;BME280;31601;48.042;12.240;2023-05-07T08:25:41;96164.59;;;22.31;49.21
12757;BME280;31601;48.042;12.240;2023-05-07T08:28:08;96174.78;;;22.40;49.11
12757;BME280;31601;48.042;12.240;2023-05-07T08:30:34;96170.00;;;21.99;48.16
12757;BME280;31601;48.042;12.240;2023-05-07T08:33:02;96168.25;;;22.20;49.58
12757;BME280;31601;48.042;12.240;2023-05-07T08:35:28;96169.34;;;22.24;49.28
12757;BME280;31601;48.042;12.240;2023-05-07T08:37:55;96174.28;;;22.00;49.75
12757;BME280;31601;48.042;12.240;2023-05-07T08:40:22;96168.94;;;22.00;48.50
12757;BME280;31601;48.042;12.240;2023-05-07T08:42:52;96163.38;;;22.07;48.12
12757;BME280;31601;48.042;12.240;2023-05-07T08:45:19;96162.31;;;22.08;48.40
12757;BME280;31601;48.042;12.240;2023-05-07T08:47:47;96168.38;;;22.46;48.26
12757;BME280;31601;48.042;12.240;2023-05-07T08:50:18;96157.31;;;22.95;47.60
12757;BME280;31601;48.042;12.240;2023-05-07T08:52:47;96164.47;;;22.64;45.62
12757;BME280;31601;48.042;12.240;2023-05-07T08:55:13;96164.50;;;22.84;46.33
12757;BME280;31601;48.042;12.240;2023-05-07T08:57:40;96162.41;;;22.97;45.28
12757;BME280;31601;48.042;12.240;2023-05-07T09:00:08;96161.06;;;22.99;46.04
12757;BME280;31601;48.042;12.240;2023-05-07T09:02:35;96164.63;;;23.26;45.51
12757;BME280;31601;48.042;12.240;2023-05-07T09:05:02;96163.84;;;23.40;44.78
12757;BME280;31601;48.042;12.240;2023-05-07T09:07:30;96160.09;;;23.47;44.54
12757;BME280;31601;48.042;12.240;2023-05-07T09:09:56;96162.22;;;23.19;45.09
12757;BME280;31601;48.042;12.240;2023-05-07T09:12:23;96165.97;;;23.38;45.25
12757;BME280;31601;48.042;12.240;2023-05-07T09:14:49;96163.47;;;23.06;46.96
12757;BME280;31601;48.042;12.240;2023-05-07T09:17:16;96163.72;;;22.89;46.61
12757;BME280;31601;48.042;12.240;2023-05-07T09:19:44;96174.88;;;22.60;46.53
12757;BME280;31601;48.042;12.240;2023-05-07T09:22:10;96170.06;;;22.62;47.21
12757;BME280;31601;48.042;12.240;2023-05-07T09:24:38;96170.06;;;22.67;44.67
12757;BME280;31601;48.042;12.240;2023-05-07T09:27:05;96170.03;;;22.52;46.56
12757;BME280;31601;48.042;12.240;2023-05-07T09:29:33;96175.59;;;21.97;48.52
12757;BME280;31601;48.042;12.240;2023-05-07T09:32:00;96175.72;;;22.18;48.69
12757;BME280;31601;48.042;12.240;2023-05-07T09:34:27;96172.09;;;22.40;47.47
12757;BME280;31601;48.042;12.240;2023-05-07T09:36:53;96177.75;;;22.00;47.63
12757;BME280;31601;48.042;12.240;2023-05-07T09:39:20;96176.38;;;21.55;48.51
12757;BME280;31601;48.042;12.240;2023-05-07T09:41:48;96166.56;;;22.09;46.75
12757;BME280;31601;48.042;12.240;2023-05-07T09:44:17;96172.69;;;22.47;45.50
12757;BME280;31601;48.042;12.240;2023-05-07T09:46:43;96171.09;;;22.51;46.57
12757;BME280;31601;48.042;12.240;2023-05-07T09:49:12;96171.59;;;22.43;47.09
12757;BME280;31601;48.042;12.240;2023-05-07T09:51:47;96169.03;;;22.74;46.77
12757;BME280;31601;48.042;12.240;2023-05-07T09:54:14;96166.91;;;22.81;46.08
12757;BME280;31601;48.042;12.240;2023-05-07T09:56:42;96157.34;;;23.05;44.18
12757;BME280;31601;48.042;12.240;2023-05-07T09:59:12;96158.31;;;22.74;45.19
12757;BME280;31601;48.042;12.240;2023-05-07T10:01:40;96159.19;;;22.89;46.17
12757;BME280;31601;48.042;12.240;2023-05-07T10:04:07;96159.50;;;23.09;43.10
12757;BME280;31601;48.042;12.240;2023-05-07T10:06:34;96170.59;;;22.59;44.85
12757;BME280;31601;48.042;12.240;2023-05-07T10:09:02;96163.56;;;23.32;43.80
12757;BME280;31601;48.042;12.240;2023-05-07T10:11:31;96163.53;;;23.16;44.29
12757;BME280;31601;48.042;12.240;2023-05-07T10:13:58;96155.78;;;23.30;43.26
12757;BME280;31601;48.042;12.240;2023-05-07T10:16:29;96153.41;;;23.54;42.87
12757;BME280;31601;48.042;12.240;2023-05-07T10:18:57;96159.25;;;23.82;44.53
12757;BME280;31601;48.042;12.240;2023-05-07T10:21:25;96150.44;;;23.40;43.56
12757;BME280;31601;48.042;12.240;2023-05-07T10:23:57;96152.56;;;23.80;41.84
12757;BME280;31601;48.042;12.240;2023-05-07T10:26:25;96154.97;;;23.19;42.76
12757;BME280;31601;48.042;12.240;2023-05-07T10:28:56;96152.03;;;23.67;42.57
12757;BME280;31601;48.042;12.240;2023-05-07T10:31:42;96147.16;;;24.10;42.51
12757;BME280;31601;48.042;12.240;2023-05-07T10:34:13;96149.81;;;24.21;40.96
12757;BME280;31601;48.042;12.240;2023-05-07T10:36:43;96149.31;;;24.13;42.78
12757;BME280;31601;48.042;12.240;2023-05-07T10:39:10;96147.47;;;23.37;43.62
12757;BME280;31601;48.042;12.240;2023-05-07T10:41:36;96151.50;;;23.55;44.17
12757;BME280;31601;48.042;12.240;2023-05-07T10:44:03;96146.16;;;23.65;45.13
12757;BME280;31601;48.042;12.240;2023-05-07T10:46:29;96149.84;;;22.97;43.18
12757;BME280;31601;48.042;12.240;2023-05-07T10:49:10;96153.81;;;22.74;44.25
12757;BME280;31601;48.042;12.240;2023-05-07T10:51:41;96150.19;;;23.42;44.23
12757;BME280;31601;48.042;12.240;2023-05-07T10:54:21;96150.97;;;23.73;43.83
12757;BME280;31601;48.042;12.240;2023-05-07T10:56:49;96157.91;;;23.23;43.57
12757;BME280;31601;48.042;12.240;2023-05-07T10:59:35;96147.22;;;23.18;44.24
12757;BME280;31601;48.042;12.240;2023-05-07T11:02:07;96141.88;;;23.38;45.27
12757;BME280;31601;48.042;12.240;2023-05-07T11:04:37;96144.00;;;23.67;43.81
12757;BME280;31601;48.042;12.240;2023-05-07T11:07:27;96141.28;;;23.00;42.69
12757;BME280;31601;48.042;12.240;2023-05-07T11:10:02;96140.00;;;23.59;42.16
12757;BME280;31601;48.042;12.240;2023-05-07T11:12:54;96138.38;;;23.28;42.96
12757;BME280;31601;48.042;12.240;2023-05-07T11:15:36;96139.59;;;24.28;40.78
12757;BME280;31601;48.042;12.240;2023-05-07T11:18:03;96137.50;;;24.09;41.09
12757;BME280;31601;48.042;12.240;2023-05-07T11:20:50;96136.31;;;24.46;41.74
12757;BME280;31601;48.042;12.240;2023-05-07T11:26:16;96140.84;;;24.56;40.73
12757;BME280;31601;48.042;12.240;2023-05-07T11:28:43;96139.03;;;24.41;42.62
12757;BME280;31601;48.042;12.240;2023-05-07T11:31:10;96138.59;;;24.79;41.12
12757;BME280;31601;48.042;12.240;2023-05-07T11:33:37;96137.09;;;24.52;39.88
12757;BME280;31601;48.042;12.240;2023-05-07T11:36:07;96138.47;;;24.44;39.36
12757;BME280;31601;48.042;12.240;2023-05-07T11:38:35;96131.97;;;24.56;41.09
12757;BME280;31601;48.042;12.240;2023-05-07T11:41:04;96125.44;;;24.82;40.16
12757;BME280;31601;48.042;12.240;2023-05-07T11:43:31;96122.72;;;24.88;39.89
12757;BME280;31601;48.042;12.240;2023-05-07T11:46:05;96129.34;;;24.45;41.11
12757;BME280;31601;48.042;12.240;2023-05-07T11:48:32;96128.34;;;24.26;41.87
12757;BME280;31601;48.042;12.240;2023-05-07T11:51:00;96134.16;;;24.48;41.26
12757;BME280;31601;48.042;12.240;2023-05-07T11:53:36;96124.38;;;24.08;40.41
12757;BME280;31601;48.042;12.240;2023-05-07T11:56:06;96132.31;;;24.39;41.08
12757;BME280;31601;48.042;12.240;2023-05-07T11:58:33;96132.28;;;24.49;41.48
12757;BME280;31601;48.042;12.240;2023-05-07T12:00:59;96131.44;;;24.64;41.86
12757;BME280;31601;48.042;12.240;2023-05-07T12:03:26;96126.09;;;24.59;40.11
12757;BME280;31601;48.042;12.240;2023-05-07T12:05:53;96126.50;;;24.81;40.00
12757;BME280;31601;48.042;12.240;2023-05-07T12:08:21;96137.28;;;24.71;38.74
12757;BME280;31601;48.042;12.240;2023-05-07T12:10:50;96133.84;;;24.60;40.07
12757;BME280;31601;48.042;12.240;2023-05-07T12:13:16;96135.66;;;24.10;41.98
12757;BME280;31601;48.042;12.240;2023-05-07T12:15:43;96130.59;;;23.83;41.98
12757;BME280;31601;48.042;12.240;2023-05-07T12:18:10;96132.44;;;24.03;41.75
12757;BME280;31601;48.042;12.240;2023-05-07T12:20:37;96138.44;;;24.55;41.37
12757;BME280;31601;48.042;12.240;2023-05-07T12:23:04;96138.00;;;24.27;38.92
12757;BME280;31601;48.042;12.240;2023-05-07T12:25:31;96132.56;;;24.58;39.50
12757;BME280;31601;48.042;12.240;2023-05-07T12:28:01;96138.16;;;24.61;40.43
12757;BME280;31601;48.042;12.240;2023-05-07T12:30:29;96140.75;;;24.01;42.00
12757;BME280;31601;48.042;12.240;2023-05-07T12:32:55;96129.91;;;24.42;40.60
12757;BME280;31601;48.042;12.240;2023-05-07T12:35:28;96133.84;;;24.60;40.66
12757;BME280;31601;48.042;12.240;2023-05-07T12:37:55;96115.28;;;24.79;38.50
12757;BME280;31601;48.042;12.240;2023-05-07T12:40:22;96115.06;;;24.65;39.12
12757;BME280;31601;48.042;12.240;2023-05-07T12:42:53;96109.41;;;24.07;39.27
12757;BME280;31601;48.042;12.240;2023-05-07T12:45:21;96121.22;;;23.75;39.75
12757;BME280;31601;48.042;12.240;2023-05-07T12:47:48;96111.81;;;24.03;39.64
12757;BME280;31601;48.042;12.240;2023-05-07T12:50:15;96113.03;;;24.37;39.23
12757;BME280;31601;48.042;12.240;2023-05-07T12:52:43;96116.50;;;24.37;38.55
12757;BME280;31601;48.042;12.240;2023-05-07T12:55:12;96116.28;;;24.23;39.62